Pagina principale
METAR-TAF:

METAR-TAF

Aeroporti :

Frontone, Italia

latitudine: 43-31N, longitudine: 012-44E, altezza: 570 m

Osservazione

Il bollettino è stato emesso 28 minuti fa, alle 11:55 UTC
Vento 16 kt da ovest/sud-ovest
Temperature 10°C
Umidità 53%
Pressione 1011 hPa
Visibilità 10 km o più
Poco nuvoloso ad un'altezza di 3300 ft

METAR: LIVF 191155Z 24016KT 9999 FEW033 10/01 Q1011 RMK FEW MON S W CLD SCT NC VAL NIL VIS MIN 9999

Ora: 13:23 (12:23 UTC)


TAF: mancante

Osservazioni e previsioni meteorologiche di più di 4000 aeroporti (messaggi METAR e TAF).

Le stazioni disponibili sono rappresentate dai dischi gialli e rossi sulla carta.

Puntare il mouse per vedere il nome della stazione.

Clicca sopra per visualizzare le osservazioni e previsioni meteorologiche.

Per cambiare la mappa : fare clic sui pulsanti verdi con una croce nera per ingrandire, il pulsante verde con un trattino per diminuire, o sulla freccia verde per le mappe adiacenti.


METAR-TAF: